Time;durP1;ratioP1;P1;durP2;ratioP2;P2;SDS_P1;SDS_P2;PMS_P1;PMS_P2;Temp;Humidity;BMP_temperature;BMP_pressure;BME280_temperature;BME280_humidity;BME280_pressure;Samples;Min_cycle;Max_cycle;Signal;HPM_P1;HPM_P2
2022/01/12 00:02:19;;;;;;;0.10;0.10;;;2.90;99.90;;;;;;5110522;28;20492;-77
2022/01/12 00:04:46;;;;;;;0.10;0.10;;;2.90;99.90;;;;;;5094383;28;20114;-80
2022/01/12 00:07:13;;;;;;;0.43;0.43;;;2.90;99.90;;;;;;5127139;28;20131;-78
2022/01/12 00:09:40;;;;;;;0.10;0.10;;;2.90;99.90;;;;;;5110576;28;20123;-80
2022/01/12 00:12:07;;;;;;;0.20;0.20;;;2.90;99.90;;;;;;5144147;28;20126;-78
2022/01/12 00:14:34;;;;;;;0.10;0.10;;;2.90;99.90;;;;;;5127601;28;20044;-80
2022/01/12 00:17:00;;;;;;;0.10;0.10;;;2.90;99.90;;;;;;5110505;28;20040;-79
2022/01/12 00:19:29;;;;;;;0.10;0.10;;;2.90;99.90;;;;;;5127209;28;20156;-77
2022/01/12 00:21:56;;;;;;;0.10;0.10;;;2.90;99.90;;;;;;5144110;28;20063;-80
2022/01/12 00:24:39;;;;;;;0.10;0.10;;;2.90;99.90;;;;;;5127596;28;20036;-78
2022/01/12 00:35:25;;;;;;;0.10;0.10;;;2.90;99.90;;;;;;5112923;28;20086;-77
2022/01/12 00:37:52;;;;;;;0.20;0.20;;;2.90;99.90;;;;;;5110888;28;20059;-77
2022/01/12 00:40:19;;;;;;;0.20;0.20;;;3.00;99.90;;;;;;5093286;28;20405;-79
2022/01/12 00:42:45;;;;;;;0.10;0.10;;;3.00;99.90;;;;;;5110050;28;20036;-79
2022/01/12 00:45:12;;;;;;;0.10;0.10;;;3.10;99.90;;;;;;5127060;28;20106;-77
2022/01/12 00:47:39;;;;;;;0.15;0.15;;;3.00;99.90;;;;;;5109618;28;20040;-78
2022/01/12 00:50:07;;;;;;;0.10;0.10;;;3.00;99.90;;;;;;5110211;28;20515;-80
2022/01/12 00:52:33;;;;;;;0.10;0.10;;;3.00;99.90;;;;;;5126506;28;20491;-78
2022/01/12 00:55:00;;;;;;;0.10;0.10;;;3.00;99.90;;;;;;5076581;28;20044;-80
2022/01/12 00:57:27;;;;;;;0.10;0.10;;;3.10;99.90;;;;;;5126287;28;20036;-77
2022/01/12 00:59:53;;;;;;;0.10;0.10;;;3.00;99.90;;;;;;5093025;28;20040;-80
2022/01/12 01:02:20;;;;;;;0.10;0.10;;;3.00;99.90;;;;;;5126425;28;20089;-78
2022/01/12 01:04:47;;;;;;;0.10;0.10;;;3.00;99.90;;;;;;5126741;28;20044;-80
2022/01/12 01:07:13;;;;;;;0.20;0.20;;;3.00;99.90;;;;;;5109772;28;20413;-78
2022/01/12 01:09:46;;;;;;;0.10;0.10;;;3.00;99.90;;;;;;5092756;28;20040;-77
2022/01/12 01:12:13;;;;;;;0.15;0.15;;;3.00;99.90;;;;;;5126256;28;20135;-78
2022/01/12 01:14:59;;;;;;;0.10;0.10;;;3.00;99.90;;;;;;5109147;28;20126;-78
2022/01/12 01:25:29;;;;;;;0.10;0.10;;;3.10;99.90;;;;;;5143353;28;20068;-79
2022/01/12 01:25:55;;;;;;;0.10;0.10;;;3.10;99.90;;;;;;5111628;28;20063;-79
2022/01/12 01:28:22;;;;;;;0.10;0.10;;;3.00;99.90;;;;;;5143132;28;20040;-79
2022/01/12 01:30:49;;;;;;;0.10;0.10;;;3.10;99.90;;;;;;5109488;28;20090;-80
2022/01/12 01:33:17;;;;;;;0.10;0.10;;;3.00;99.90;;;;;;5143350;28;20468;-80
2022/01/12 01:35:52;;;;;;;0.10;0.10;;;3.00;99.90;;;;;;5109318;28;20122;-78
2022/01/12 01:38:19;;;;;;;0.10;0.10;;;3.10;99.90;;;;;;5125930;28;20036;-78
2022/01/12 01:40:46;;;;;;;0.10;0.10;;;3.00;99.90;;;;;;5108661;28;20050;-80
2022/01/12 01:43:27;;;;;;;0.10;0.10;;;3.00;99.90;;;;;;5109352;28;20043;-80
2022/01/12 01:54:13;;;;;;;0.10;0.10;;;3.30;99.90;;;;;;5111977;28;20047;-78
2022/01/12 01:56:40;;;;;;;0.90;0.38;;;3.60;99.90;;;;;;5108328;28;20101;-80
2022/01/12 01:59:07;;;;;;;0.08;0.08;;;3.10;99.90;;;;;;5109040;28;20052;-79
2022/01/12 02:01:34;;;;;;;0.10;0.10;;;3.10;99.90;;;;;;5142639;28;20411;-77
2022/01/12 02:04:03;;;;;;;0.10;0.10;;;3.10;99.90;;;;;;5108920;28;20039;-77
2022/01/12 02:06:30;;;;;;;0.20;0.20;;;3.10;99.90;;;;;;5108964;28;20481;-78
2022/01/12 02:08:56;;;;;;;0.17;0.17;;;3.10;99.90;;;;;;5109140;28;20043;-77
2022/01/12 02:11:28;;;;;;;0.10;0.10;;;3.20;99.90;;;;;;5142677;28;20100;-80
2022/01/12 02:13:55;;;;;;;0.08;0.08;;;3.20;99.90;;;;;;5125449;28;20029;-79
2022/01/12 02:16:25;;;;;;;0.10;0.10;;;3.30;99.90;;;;;;5125744;28;20415;-77
2022/01/12 02:40:25;;;;;;;0.10;0.10;;;3.20;99.90;;;;;;5129444;28;20105;-80
2022/01/12 02:43:15;;;;;;;0.10;0.10;;;3.30;99.90;;;;;;5129015;28;20051;-78
2022/01/12 02:51:15;;;;;;;0.10;0.10;;;3.30;99.90;;;;;;5128728;28;20406;-78
2022/01/12 02:53:43;;;;;;;0.10;0.10;;;3.20;99.90;;;;;;5112879;28;20044;-80
2022/01/12 02:56:22;;;;;;;0.10;0.10;;;3.20;99.90;;;;;;5112410;28;20560;-80
2022/01/12 02:58:51;;;;;;;0.10;0.10;;;3.20;99.90;;;;;;5129044;28;20040;-80
2022/01/12 03:03:51;;;;;;;0.10;0.10;;;3.10;99.90;;;;;;5128912;28;20047;-78
2022/01/12 03:06:23;;;;;;;0.10;0.10;;;3.10;99.90;;;;;;5095850;28;20573;-80
2022/01/12 03:08:51;;;;;;;0.10;0.10;;;3.30;99.90;;;;;;5128942;28;20044;-78
2022/01/12 03:11:19;;;;;;;0.20;0.20;;;3.90;99.90;;;;;;5111630;28;20086;-80
2022/01/12 03:13:47;;;;;;;0.10;0.10;;;3.10;99.90;;;;;;5128199;28;20122;-80
2022/01/12 03:16:19;;;;;;;0.10;0.10;;;3.10;99.90;;;;;;5145359;28;20044;-78
2022/01/12 03:18:52;;;;;;;0.10;0.10;;;3.80;99.90;;;;;;5129904;27;20128;-80
2022/01/12 03:21:22;;;;;;;0.10;0.10;;;3.10;99.90;;;;;;5128203;28;20052;-79
2022/01/12 03:23:50;;;;;;;0.10;0.10;;;3.10;99.90;;;;;;5128162;28;20050;-78
2022/01/12 03:26:17;;;;;;;0.00;0.00;;;3.10;99.90;;;;;;5128477;28;20491;-78
2022/01/12 03:28:44;;;;;;;0.10;0.10;;;3.80;99.90;;;;;;5149709;27;20051;-78
2022/01/12 03:31:20;;;;;;;0.20;0.20;;;3.00;99.90;;;;;;5134690;28;20038;-78
2022/01/12 03:39:14;;;;;;;0.10;0.10;;;3.00;99.90;;;;;;5148523;28;20051;-78
2022/01/12 03:41:43;;;;;;;0.10;0.10;;;3.00;99.90;;;;;;5149109;28;20040;-79
2022/01/12 03:44:12;;;;;;;0.13;0.13;;;3.00;99.90;;;;;;5165383;27;20054;-79
2022/01/12 03:46:50;;;;;;;0.10;0.10;;;3.50;99.90;;;;;;5148467;28;20059;-77
2022/01/12 03:49:18;;;;;;;0.10;0.10;;;3.00;99.90;;;;;;5148950;28;20118;-79
2022/01/12 03:51:46;;;;;;;0.10;0.10;;;3.00;99.90;;;;;;5147811;28;20128;-76
2022/01/12 03:54:13;;;;;;;0.10;0.10;;;3.00;99.90;;;;;;5148805;28;20035;-77
2022/01/12 03:56:39;;;;;;;0.20;0.20;;;3.70;99.90;;;;;;5165666;27;20081;-77
2022/01/12 03:59:06;;;;;;;0.10;0.10;;;3.30;99.90;;;;;;5165021;27;20038;-77
2022/01/12 04:01:37;;;;;;;0.10;0.10;;;3.00;99.90;;;;;;5148544;28;20127;-78
2022/01/12 04:04:08;;;;;;;0.20;0.20;;;3.20;99.90;;;;;;5148190;28;20123;-77
2022/01/12 04:09:21;;;;;;;0.20;0.20;;;3.20;99.90;;;;;;5148203;28;20582;-77
2022/01/12 04:11:48;;;;;;;0.10;0.10;;;2.90;99.90;;;;;;5131238;28;20096;-80
2022/01/12 04:14:14;;;;;;;0.10;0.10;;;2.90;99.90;;;;;;5165021;27;20036;-77
2022/01/12 04:16:41;;;;;;;0.10;0.10;;;2.90;99.90;;;;;;5114429;28;20040;-77
2022/01/12 04:19:08;;;;;;;0.10;0.10;;;2.90;99.90;;;;;;5147231;28;20058;-79
2022/01/12 04:21:41;;;;;;;0.20;0.20;;;2.90;99.90;;;;;;5130838;28;20091;-77
2022/01/12 04:24:09;;;;;;;0.10;0.10;;;2.90;99.90;;;;;;5115065;28;20043;-79
2022/01/12 04:26:36;;;;;;;0.10;0.10;;;2.80;99.90;;;;;;5131280;28;20108;-79
2022/01/12 04:29:03;;;;;;;0.15;0.15;;;2.90;99.90;;;;;;5147821;27;20047;-80
2022/01/12 04:31:29;;;;;;;0.20;0.20;;;3.60;99.90;;;;;;5164526;27;20484;-79
2022/01/12 04:33:56;;;;;;;0.10;0.10;;;2.80;99.90;;;;;;5130258;28;20103;-79
2022/01/12 04:36:23;;;;;;;0.10;0.10;;;2.80;99.90;;;;;;5147717;28;20043;-80
2022/01/12 04:38:49;;;;;;;0.10;0.10;;;2.80;99.90;;;;;;5147855;28;20120;-80
2022/01/12 04:41:16;;;;;;;0.13;0.13;;;3.10;99.90;;;;;;5147064;28;20035;-77
2022/01/12 04:43:44;;;;;;;0.10;0.10;;;2.80;99.90;;;;;;5113712;28;20047;-79
2022/01/12 04:51:12;;;;;;;0.10;0.10;;;2.70;99.90;;;;;;5130227;28;20196;-80
2022/01/12 04:53:38;;;;;;;0.10;0.10;;;3.60;99.90;;;;;;5130426;28;20126;-79
2022/01/12 04:56:05;;;;;;;0.10;0.10;;;2.70;99.90;;;;;;5112757;28;20040;-80
2022/01/12 04:58:32;;;;;;;0.15;0.15;;;2.60;99.90;;;;;;5164275;27;20047;-79
2022/01/12 05:01:07;;;;;;;0.10;0.10;;;2.70;99.90;;;;;;5113242;28;20096;-80
2022/01/12 05:07:07;;;;;;;0.10;0.10;;;2.60;99.90;;;;;;5147164;28;20057;-78
2022/01/12 05:14:52;;;;;;;0.20;0.20;;;2.60;99.90;;;;;;5132499;28;20097;-80
2022/01/12 05:17:19;;;;;;;0.10;0.10;;;2.60;99.90;;;;;;5114086;28;20130;-78
2022/01/12 05:19:46;;;;;;;0.32;0.20;;;2.60;99.90;;;;;;5146460;28;20126;-79
2022/01/12 05:22:12;;;;;;;0.20;0.20;;;2.60;99.90;;;;;;5129554;28;20130;-79
2022/01/12 05:24:39;;;;;;;0.10;0.10;;;2.50;99.90;;;;;;5164355;27;20095;-78
2022/01/12 05:27:06;;;;;;;0.20;0.20;;;3.10;99.90;;;;;;5112878;28;20044;-78
2022/01/12 05:29:32;;;;;;;0.10;0.10;;;2.50;99.90;;;;;;5129787;28;20046;-78
2022/01/12 05:31:59;;;;;;;0.17;0.17;;;2.50;99.90;;;;;;5146410;28;20046;-77
2022/01/12 05:34:27;;;;;;;0.10;0.10;;;2.40;99.90;;;;;;5129573;28;20036;-77
2022/01/12 05:36:54;;;;;;;0.10;0.10;;;2.40;99.90;;;;;;5146510;28;20047;-80
2022/01/12 05:39:20;;;;;;;0.10;0.10;;;2.60;99.90;;;;;;5128844;28;20032;-77
2022/01/12 05:41:48;;;;;;;0.10;0.10;;;3.00;99.90;;;;;;5112334;28;20134;-80
2022/01/12 05:44:15;;;;;;;0.10;0.10;;;2.40;99.90;;;;;;5112207;28;20041;-80
2022/01/12 05:46:43;;;;;;;0.20;0.20;;;2.40;99.90;;;;;;5146131;28;20044;-80
2022/01/12 05:51:55;;;;;;;0.10;0.10;;;2.40;99.90;;;;;;5131734;28;20051;-80
2022/01/12 05:54:22;;;;;;;0.10;0.10;;;2.30;99.90;;;;;;5129565;28;20180;-80
2022/01/12 05:56:51;;;;;;;0.17;0.17;;;2.30;99.90;;;;;;5146323;28;20553;-81
2022/01/12 05:59:18;;;;;;;0.10;0.10;;;2.30;99.90;;;;;;5164705;27;20035;-80
2022/01/12 06:01:45;;;;;;;0.10;0.10;;;2.30;99.90;;;;;;5129412;28;20039;-78
2022/01/12 06:04:12;;;;;;;0.17;0.17;;;2.70;99.90;;;;;;5112160;28;20511;-80
2022/01/12 06:06:38;;;;;;;0.10;0.10;;;2.20;99.90;;;;;;5112517;28;20509;-78
2022/01/12 06:09:05;;;;;;;0.20;0.20;;;2.40;99.90;;;;;;5112270;28;20061;-80
2022/01/12 06:11:32;;;;;;;0.10;0.10;;;2.20;99.90;;;;;;5128850;28;20043;-78
2022/01/12 06:13:59;;;;;;;0.10;0.10;;;2.20;99.90;;;;;;5129860;28;20093;-78
2022/01/12 06:16:27;;;;;;;0.10;0.10;;;2.90;99.90;;;;;;5145491;28;20039;-78
2022/01/12 06:18:55;;;;;;;0.13;0.13;;;2.60;99.90;;;;;;5163143;28;20035;-80
2022/01/12 06:21:23;;;;;;;0.10;0.10;;;2.20;99.90;;;;;;5112060;28;20142;-80
2022/01/12 06:23:50;;;;;;;0.10;0.10;;;2.10;99.90;;;;;;5164165;28;20511;-80
2022/01/12 06:26:19;;;;;;;0.20;0.20;;;2.10;99.90;;;;;;5147830;28;20047;-80
2022/01/12 06:29:03;;;;;;;0.10;0.10;;;2.20;99.90;;;;;;5129322;28;20047;-78
2022/01/12 06:31:30;;;;;;;0.20;0.20;;;2.10;99.90;;;;;;5148274;28;20043;-80
2022/01/12 06:33:56;;;;;;;0.10;0.10;;;2.10;99.90;;;;;;5112021;28;20058;-80
2022/01/12 06:36:23;;;;;;;0.20;0.20;;;2.00;99.90;;;;;;5128442;28;20135;-78
2022/01/12 06:38:50;;;;;;;0.20;0.20;;;2.90;99.90;;;;;;5111777;28;20403;-78
2022/01/12 06:41:18;;;;;;;0.10;0.10;;;2.00;99.90;;;;;;5128784;28;20036;-78
2022/01/12 06:43:45;;;;;;;0.13;0.13;;;2.00;99.90;;;;;;5145598;28;20075;-80
2022/01/12 06:46:19;;;;;;;0.10;0.10;;;2.00;99.90;;;;;;5145715;28;20055;-79
2022/01/12 06:48:46;;;;;;;0.10;0.10;;;1.90;99.90;;;;;;5145803;28;20123;-78
2022/01/12 06:51:13;;;;;;;0.20;0.20;;;1.90;99.90;;;;;;5145378;28;20131;-79
2022/01/12 06:53:40;;;;;;;0.20;0.20;;;2.70;99.90;;;;;;5162797;28;20050;-78
2022/01/12 06:56:08;;;;;;;0.10;0.10;;;1.80;99.90;;;;;;5162810;28;20526;-78
2022/01/12 06:58:34;;;;;;;0.10;0.10;;;1.80;99.90;;;;;;5162776;28;20070;-78
2022/01/12 07:01:01;;;;;;;0.20;0.20;;;1.80;99.90;;;;;;5112523;28;20040;-78
2022/01/12 07:03:28;;;;;;;0.15;0.15;;;1.90;99.90;;;;;;5145484;28;20471;-77
2022/01/12 07:05:55;;;;;;;0.20;0.20;;;1.80;99.90;;;;;;5128590;28;20062;-78
2022/01/12 07:08:21;;;;;;;0.10;0.10;;;2.00;99.90;;;;;;5128459;28;20043;-79
2022/01/12 07:10:48;;;;;;;0.20;0.20;;;1.80;99.90;;;;;;5128813;28;20039;-77
2022/01/12 07:13:15;;;;;;;0.20;0.20;;;2.10;99.90;;;;;;5115913;28;20044;-79
2022/01/12 07:15:42;;;;;;;0.20;0.20;;;1.90;99.90;;;;;;5131945;28;20035;-78
2022/01/12 07:18:10;;;;;;;0.10;0.10;;;1.80;99.90;;;;;;5149233;28;20032;-78
2022/01/12 07:20:37;;;;;;;0.20;0.20;;;2.00;99.90;;;;;;5131552;28;20055;-78
2022/01/12 07:23:04;;;;;;;0.20;0.20;;;1.80;99.90;;;;;;5132352;28;20039;-80
2022/01/12 07:25:31;;;;;;;0.20;0.20;;;1.80;99.90;;;;;;5148912;28;20057;-77
2022/01/12 07:27:57;;;;;;;0.20;0.20;;;1.70;99.90;;;;;;5149119;28;20040;-78
2022/01/12 07:30:24;;;;;;;0.20;0.20;;;1.70;99.90;;;;;;5149057;28;20032;-78
2022/01/12 07:32:51;;;;;;;0.10;0.10;;;1.80;99.90;;;;;;5148412;28;20830;-77
2022/01/12 07:35:18;;;;;;;0.20;0.20;;;1.90;99.90;;;;;;5147882;28;20040;-77
2022/01/12 07:37:46;;;;;;;0.15;0.15;;;1.70;99.90;;;;;;5153836;27;20031;-80
2022/01/12 07:40:13;;;;;;;0.10;0.10;;;1.60;99.90;;;;;;5153728;27;20062;-79
2022/01/12 07:42:40;;;;;;;0.10;0.10;;;1.60;99.90;;;;;;5156399;27;20035;-78
2022/01/12 07:45:07;;;;;;;0.20;0.20;;;1.60;99.90;;;;;;5131284;28;20047;-78
2022/01/12 07:47:34;;;;;;;0.10;0.10;;;1.70;99.90;;;;;;5112050;28;20040;-80
2022/01/12 07:50:01;;;;;;;0.20;0.20;;;1.60;99.90;;;;;;5131415;28;20130;-79
2022/01/12 07:52:30;;;;;;;0.20;0.20;;;1.60;99.90;;;;;;5130558;28;20051;-80
2022/01/12 07:54:57;;;;;;;0.20;0.20;;;1.60;99.90;;;;;;5131128;28;20511;-78
2022/01/12 07:57:24;;;;;;;0.15;0.15;;;1.60;99.90;;;;;;5138893;28;20028;-80
2022/01/12 07:59:51;;;;;;;0.20;0.20;;;1.60;99.90;;;;;;5114512;28;20041;-79
2022/01/12 08:02:18;;;;;;;0.10;0.10;;;1.80;99.90;;;;;;5130493;28;20381;-81
2022/01/12 08:04:44;;;;;;;0.10;0.10;;;1.70;99.90;;;;;;5130240;28;20048;-79
2022/01/12 08:07:11;;;;;;;0.10;0.10;;;1.70;99.90;;;;;;5127351;28;20140;-81
2022/01/12 08:09:39;;;;;;;0.20;0.20;;;1.60;99.90;;;;;;5163118;27;20046;-81
2022/01/12 08:12:07;;;;;;;0.10;0.10;;;1.60;99.90;;;;;;5146808;28;20035;-78
2022/01/12 08:14:34;;;;;;;0.20;0.20;;;1.70;99.90;;;;;;5147225;27;20031;-80
2022/01/12 08:17:01;;;;;;;0.10;0.10;;;1.80;99.90;;;;;;5113686;28;20039;-78
2022/01/12 08:19:29;;;;;;;0.20;0.20;;;1.70;99.90;;;;;;5147452;28;20038;-79
2022/01/12 08:21:57;;;;;;;0.40;0.40;;;2.70;99.90;;;;;;5113921;28;20055;-80
2022/01/12 08:24:23;;;;;;;0.20;0.20;;;1.70;99.90;;;;;;5113531;28;20111;-81
2022/01/12 08:26:50;;;;;;;0.38;0.38;;;1.70;99.90;;;;;;5113614;28;20035;-79
2022/01/12 08:29:17;;;;;;;0.20;0.20;;;1.70;99.90;;;;;;5113840;28;20408;-78
2022/01/12 08:31:45;;;;;;;0.20;0.20;;;1.80;99.90;;;;;;5113639;28;20047;-78
2022/01/12 08:34:12;;;;;;;0.20;0.20;;;1.80;99.90;;;;;;5147590;28;20082;-78
2022/01/12 08:36:41;;;;;;;0.20;0.20;;;2.30;99.90;;;;;;5129811;28;20035;-81
2022/01/12 08:39:08;;;;;;;0.20;0.20;;;1.80;99.90;;;;;;5113266;28;20035;-78
2022/01/12 08:41:37;;;;;;;0.20;0.20;;;1.80;99.90;;;;;;5130141;28;20043;-80
2022/01/12 08:44:09;;;;;;;0.10;0.10;;;1.80;99.90;;;;;;5113426;28;20044;-81
2022/01/12 08:46:37;;;;;;;0.10;0.10;;;1.90;99.90;;;;;;5130190;28;20043;-79
2022/01/12 08:49:04;;;;;;;0.20;0.20;;;1.90;99.90;;;;;;5147662;27;20046;-81
2022/01/12 08:51:31;;;;;;;0.20;0.20;;;2.50;99.90;;;;;;5129629;28;20488;-79
2022/01/12 08:53:58;;;;;;;0.13;0.13;;;2.00;99.90;;;;;;5146876;28;20180;-79
2022/01/12 08:56:25;;;;;;;0.20;0.20;;;2.00;99.90;;;;;;5130193;28;20159;-79
2022/01/12 08:58:52;;;;;;;0.10;0.10;;;2.40;99.90;;;;;;5112900;28;20071;-81
2022/01/12 09:01:19;;;;;;;0.20;0.20;;;2.00;99.90;;;;;;5147240;28;20560;-81
2022/01/12 09:03:45;;;;;;;0.20;0.20;;;2.00;99.90;;;;;;5129581;28;20052;-80
2022/01/12 09:06:13;;;;;;;0.20;0.20;;;2.00;99.90;;;;;;5130051;28;20054;-79
2022/01/12 09:08:42;;;;;;;0.10;0.10;;;2.80;99.90;;;;;;5128860;28;20040;-78
2022/01/12 09:11:10;;;;;;;0.20;0.20;;;2.10;99.90;;;;;;5147348;28;20608;-80
2022/01/12 09:13:37;;;;;;;0.25;0.25;;;2.10;99.90;;;;;;5147040;27;20044;-80
2022/01/12 09:16:06;;;;;;;0.17;0.17;;;2.10;99.90;;;;;;5129928;28;20043;-80
2022/01/12 09:18:34;;;;;;;1.10;0.95;;;2.10;99.90;;;;;;5163223;27;20092;-79
2022/01/12 09:21:01;;;;;;;0.10;0.10;;;2.00;99.90;;;;;;5146717;27;20059;-81
2022/01/12 09:23:28;;;;;;;0.10;0.10;;;2.40;99.90;;;;;;5146414;28;20043;-78
2022/01/12 09:25:55;;;;;;;0.10;0.10;;;2.00;99.90;;;;;;5112694;28;20039;-82
2022/01/12 09:28:22;;;;;;;0.17;0.17;;;2.20;99.90;;;;;;5130261;28;20142;-80
2022/01/12 09:30:51;;;;;;;0.10;0.10;;;2.20;99.90;;;;;;5146459;28;20035;-80
2022/01/12 09:33:18;;;;;;;0.10;0.10;;;2.20;99.90;;;;;;5129057;28;20031;-79
2022/01/12 09:35:47;;;;;;;0.17;0.17;;;2.20;99.90;;;;;;5111656;28;20067;-81
2022/01/12 09:38:14;;;;;;;0.13;0.13;;;2.20;99.90;;;;;;5129130;28;20485;-80
2022/01/12 09:40:41;;;;;;;0.10;0.10;;;2.40;99.90;;;;;;5128886;28;20038;-80
2022/01/12 09:43:08;;;;;;;0.10;0.10;;;2.90;99.90;;;;;;5112644;28;20039;-80
2022/01/12 09:45:35;;;;;;;0.10;0.10;;;2.30;99.90;;;;;;5129279;28;20123;-81
2022/01/12 09:48:02;;;;;;;0.20;0.20;;;2.40;99.90;;;;;;5112497;28;20043;-80
2022/01/12 09:50:29;;;;;;;0.20;0.20;;;2.30;99.90;;;;;;5128664;28;20080;-81
2022/01/12 09:52:56;;;;;;;0.10;0.10;;;2.40;99.90;;;;;;5127939;28;20039;-80
2022/01/12 09:55:22;;;;;;;0.10;0.10;;;3.10;99.90;;;;;;5102954;28;20039;-79
2022/01/12 09:57:50;;;;;;;0.10;0.10;;;2.60;99.90;;;;;;5145359;28;20511;-79
2022/01/12 10:00:24;;;;;;;0.20;0.20;;;2.50;99.90;;;;;;5128836;28;20380;-81
2022/01/12 10:02:50;;;;;;;0.10;0.10;;;2.50;99.90;;;;;;5152753;27;20067;-79
2022/01/12 10:05:27;;;;;;;0.10;0.10;;;3.50;99.90;;;;;;5091556;28;20036;-80
2022/01/12 10:07:54;;;;;;;0.20;0.20;;;2.80;99.90;;;;;;5125127;28;20051;-79
2022/01/12 10:10:20;;;;;;;0.17;0.17;;;2.60;99.90;;;;;;5125343;28;20400;-79
2022/01/12 10:12:54;;;;;;;0.20;0.20;;;2.60;99.90;;;;;;5091283;28;20044;-80
2022/01/12 10:15:21;;;;;;;0.10;0.10;;;2.60;99.90;;;;;;5108322;28;20130;-79
2022/01/12 10:17:49;;;;;;;0.20;0.20;;;2.70;99.90;;;;;;5091320;28;20150;-81
2022/01/12 10:20:21;;;;;;;0.10;0.10;;;3.40;99.90;;;;;;5092188;28;20036;-79
2022/01/12 10:22:57;;;;;;;0.10;0.10;;;2.80;99.90;;;;;;5124731;28;20055;-80
2022/01/12 10:25:25;;;;;;;0.15;0.15;;;2.80;99.90;;;;;;5108443;28;20051;-81
2022/01/12 10:27:52;;;;;;;0.10;0.10;;;2.90;99.90;;;;;;5108204;28;20055;-81
2022/01/12 10:30:24;;;;;;;0.20;0.20;;;2.80;99.90;;;;;;5091130;28;20404;-79
2022/01/12 10:33:06;;;;;;;0.17;0.17;;;3.20;99.90;;;;;;5138514;28;20047;-81
2022/01/12 10:35:35;;;;;;;0.10;0.10;;;3.00;99.90;;;;;;5145498;28;20028;-81
2022/01/12 10:38:22;;;;;;;0.10;0.10;;;3.20;99.90;;;;;;5128235;28;20044;-79
2022/01/12 10:40:52;;;;;;;;;;;3.10;99.90;;;;;;5129016;28;20043;-79
2022/01/12 10:43:40;;;;;;;0.10;0.10;;;3.10;99.90;;;;;;5128511;28;19940;-79
2022/01/12 10:46:10;;;;;;;0.10;0.10;;;3.10;99.90;;;;;;5129319;28;20042;-79
2022/01/12 10:48:43;;;;;;;0.10;0.10;;;3.20;99.90;;;;;;5132641;28;20130;-80
2022/01/12 10:51:11;;;;;;;0.10;0.10;;;3.70;99.90;;;;;;5132658;28;20039;-81
2022/01/12 10:53:38;;;;;;;0.10;0.10;;;3.30;99.90;;;;;;5132200;28;20032;-81
2022/01/12 10:56:09;;;;;;;0.10;0.10;;;3.70;99.90;;;;;;5132163;28;20506;-81
2022/01/12 10:58:41;;;;;;;0.10;0.10;;;3.40;99.90;;;;;;5132342;28;20091;-80
2022/01/12 11:01:09;;;;;;;0.10;0.10;;;4.20;99.90;;;;;;5131987;28;20043;-79
2022/01/12 11:03:38;;;;;;;0.13;0.13;;;3.60;99.90;;;;;;5132163;28;20173;-79
2022/01/12 11:06:08;;;;;;;0.10;0.10;;;3.50;99.90;;;;;;5098822;28;20039;-81
2022/01/12 11:08:38;;;;;;;0.10;0.10;;;3.70;99.90;;;;;;5132078;28;20097;-81
2022/01/12 11:11:05;;;;;;;0.10;0.10;;;3.70;99.90;;;;;;5131749;28;20039;-79
2022/01/12 11:13:33;;;;;;;0.10;0.10;;;3.70;99.90;;;;;;5132142;28;20502;-79
2022/01/12 11:16:01;;;;;;;0.10;0.10;;;4.00;99.90;;;;;;5134964;27;20390;-81
2022/01/12 11:18:31;;;;;;;0.10;0.10;;;3.90;99.90;;;;;;5135496;27;20042;-80
2022/01/12 11:21:28;;;;;;;0.10;0.10;;;4.40;99.90;;;;;;5152109;27;20055;-82
2022/01/12 11:23:57;;;;;;;0.10;0.10;;;4.20;99.90;;;;;;5167770;27;20088;-81
2022/01/12 11:26:27;;;;;;;0.10;0.10;;;4.60;99.90;;;;;;5152971;27;20066;-82
2022/01/12 11:28:55;;;;;;;0.10;0.10;;;4.50;99.90;;;;;;5168756;27;20039;-80
2022/01/12 11:31:40;;;;;;;0.10;0.10;;;4.50;99.90;;;;;;5152589;27;20043;-80
2022/01/12 11:34:18;;;;;;;0.10;0.10;;;4.10;99.90;;;;;;5108110;28;20058;-81
2022/01/12 11:36:44;;;;;;;0.03;0.03;;;4.10;99.90;;;;;;5156398;27;20381;-80
2022/01/12 11:39:32;;;;;;;0.10;0.10;;;4.30;99.90;;;;;;5151085;27;20043;-79
2022/01/12 11:41:59;;;;;;;0.10;0.10;;;4.20;99.90;;;;;;5131409;28;20484;-81
2022/01/12 11:44:28;;;;;;;0.10;0.10;;;4.20;99.90;;;;;;5110804;28;20682;-81
2022/01/12 11:46:58;;;;;;;0.10;0.10;;;4.10;99.90;;;;;;5114785;28;20043;-81
2022/01/12 11:49:37;;;;;;;0.10;0.10;;;4.70;99.90;;;;;;5148581;28;20036;-80
2022/01/12 11:52:17;;;;;;;0.10;0.10;;;4.10;99.90;;;;;;5123707;28;20044;-81
2022/01/12 11:54:47;;;;;;;0.10;0.10;;;4.10;99.90;;;;;;5160957;27;20089;-80
2022/01/12 11:57:19;;;;;;;0.10;0.10;;;4.10;99.90;;;;;;5110829;28;20047;-81
2022/01/12 11:59:52;;;;;;;0.10;0.10;;;4.10;99.90;;;;;;5127234;28;20040;-79
2022/01/12 12:02:29;;;;;;;0.10;0.10;;;4.10;99.90;;;;;;5111019;28;20135;-81
2022/01/12 12:04:59;;;;;;;0.10;0.10;;;4.10;99.90;;;;;;5150734;27;20126;-81
2022/01/12 12:07:27;;;;;;;0.10;0.10;;;4.20;99.90;;;;;;5156028;27;20046;-80
2022/01/12 12:09:58;;;;;;;0.10;0.10;;;4.20;99.90;;;;;;5095414;28;20108;-79
2022/01/12 12:12:30;;;;;;;0.10;0.10;;;4.20;99.90;;;;;;5123537;28;20043;-79
2022/01/12 12:14:59;;;;;;;0.10;0.10;;;4.30;99.90;;;;;;5130226;28;20031;-81
2022/01/12 12:17:29;;;;;;;0.10;0.10;;;4.40;99.90;;;;;;5131297;28;20039;-78
2022/01/12 12:19:57;;;;;;;0.10;0.10;;;4.40;99.90;;;;;;5147610;28;20032;-79
2022/01/12 12:22:38;;;;;;;0.10;0.10;;;4.40;99.90;;;;;;5164743;27;20052;-79
2022/01/12 12:25:09;;;;;;;0.10;0.10;;;4.40;99.90;;;;;;5150435;27;20505;-78
2022/01/12 12:27:38;;;;;;;0.10;0.10;;;4.50;99.90;;;;;;5144576;28;20447;-80
2022/01/12 12:30:09;;;;;;;0.10;0.10;;;4.50;99.90;;;;;;5127505;28;20043;-83
2022/01/12 12:32:38;;;;;;;0.15;0.15;;;4.50;99.90;;;;;;5127991;28;20097;-82
2022/01/12 12:35:20;;;;;;;0.15;0.15;;;4.60;99.90;;;;;;5144326;28;20036;-82
2022/01/12 12:37:52;;;;;;;0.10;0.10;;;4.60;99.90;;;;;;5144789;28;20044;-82
2022/01/12 12:40:26;;;;;;;0.10;0.10;;;4.60;99.90;;;;;;5144708;28;20032;-82
2022/01/12 12:43:01;;;;;;;0.10;0.10;;;4.60;99.90;;;;;;5127250;28;20127;-82
2022/01/12 12:45:56;;;;;;;0.10;0.10;;;4.70;99.90;;;;;;5110589;28;20048;-83
2022/01/12 12:48:25;;;;;;;0.10;0.10;;;4.70;99.90;;;;;;5108167;28;20059;-82
2022/01/12 12:51:14;;;;;;;0.10;0.10;;;4.70;99.90;;;;;;5143914;28;20512;-83
2022/01/12 12:53:46;;;;;;;0.10;0.10;;;4.70;99.90;;;;;;5144789;28;20036;-83
2022/01/12 12:56:16;;;;;;;0.20;0.20;;;4.70;99.90;;;;;;5128439;28;20036;-82
2022/01/12 12:58:52;;;;;;;0.10;0.10;;;4.80;99.90;;;;;;5132117;28;20032;-83
2022/01/12 13:01:20;;;;;;;0.10;0.10;;;4.80;99.90;;;;;;5129017;28;20606;-83
2022/01/12 13:03:50;;;;;;;0.10;0.10;;;4.80;99.90;;;;;;5127468;28;20044;-83
2022/01/12 13:06:30;;;;;;;0.10;0.10;;;4.80;99.90;;;;;;5144237;28;20053;-83
2022/01/12 13:09:03;;;;;;;0.10;0.10;;;4.80;99.90;;;;;;5109342;28;20079;-82
2022/01/12 13:11:44;;;;;;;0.10;0.10;;;4.90;99.90;;;;;;5143936;28;20043;-82
2022/01/12 13:14:13;;;;;;;0.10;0.10;;;4.80;99.90;;;;;;5144038;28;20088;-83
2022/01/12 13:16:53;;;;;;;0.10;0.10;;;4.90;99.90;;;;;;5127540;28;20043;-82
2022/01/12 13:22:34;;;;;;;0.10;0.10;;;4.90;99.90;;;;;;5126421;28;20548;-83
2022/01/12 13:25:04;;;;;;;0.10;0.10;;;5.00;99.90;;;;;;5126925;28;20043;-83
2022/01/12 13:27:32;;;;;;;0.10;0.10;;;5.00;99.90;;;;;;5093758;28;20047;-82
2022/01/12 13:29:59;;;;;;;0.10;0.10;;;5.00;99.90;;;;;;5143142;28;20035;-82
2022/01/12 13:32:26;;;;;;;0.10;0.10;;;5.10;99.90;;;;;;5127050;28;20131;-83
2022/01/12 13:34:59;;;;;;;0.10;0.10;;;5.00;99.90;;;;;;5110132;28;20453;-83
2022/01/12 13:37:26;;;;;;;0.10;0.10;;;5.00;99.90;;;;;;5143810;28;20075;-83
2022/01/12 13:40:22;;;;;;;0.10;0.10;;;4.90;99.90;;;;;;5127040;28;20531;-84
2022/01/12 13:42:53;;;;;;;0.10;0.10;;;4.90;99.90;;;;;;5110144;28;20496;-83
2022/01/12 13:45:39;;;;;;;0.10;0.10;;;4.90;99.90;;;;;;5110052;28;20404;-82
2022/01/12 13:48:16;;;;;;;0.10;0.10;;;4.90;99.90;;;;;;5143478;28;20066;-81
2022/01/12 13:50:52;;;;;;;0.10;0.10;;;5.70;99.90;;;;;;5143907;28;20047;-82
2022/01/12 13:53:30;;;;;;;0.10;0.10;;;4.90;99.90;;;;;;5127096;28;20056;-82
2022/01/12 13:55:57;;;;;;;0.10;0.10;;;4.90;99.90;;;;;;5144071;28;20089;-82
2022/01/12 13:58:29;;;;;;;0.10;0.10;;;4.90;99.90;;;;;;5126504;28;20044;-83
2022/01/12 14:01:11;;;;;;;0.10;0.10;;;4.90;99.90;;;;;;5143505;28;20043;-83
2022/01/12 14:03:51;;;;;;;0.10;0.10;;;4.90;99.90;;;;;;5143535;28;20455;-82
2022/01/12 14:06:24;;;;;;;0.13;0.13;;;4.90;99.90;;;;;;5143395;28;20101;-83
2022/01/12 14:08:56;;;;;;;0.10;0.10;;;4.90;99.90;;;;;;5126893;28;20047;-82
2022/01/12 14:11:35;;;;;;;0.65;0.65;;;4.90;99.90;;;;;;5126802;28;20051;-82
2022/01/12 14:14:03;;;;;;;0.10;0.10;;;4.90;99.90;;;;;;5143585;28;20042;-83
2022/01/12 14:16:32;;;;;;;0.10;0.10;;;4.90;99.90;;;;;;5143121;28;20040;-83
2022/01/12 14:18:59;;;;;;;0.10;0.10;;;4.90;99.90;;;;;;5125960;28;20047;-83
2022/01/12 14:21:26;;;;;;;0.10;0.10;;;4.90;99.90;;;;;;5146426;28;20415;-83
2022/01/12 14:23:56;;;;;;;0.10;0.10;;;4.90;99.90;;;;;;5131507;28;20127;-83
2022/01/12 14:26:29;;;;;;;0.10;0.10;;;4.90;99.90;;;;;;5130606;28;20156;-83
2022/01/12 14:28:58;;;;;;;0.10;0.10;;;4.90;99.90;;;;;;5147659;28;20105;-83
2022/01/12 14:31:25;;;;;;;0.10;0.10;;;4.90;99.90;;;;;;5129907;28;20063;-83